Council Bluffs, IA

8:20 PM CDT on April 30, 2017 (GMT -0500)
CarterLake.org | | Change Station

Elev 980 ft 41.29 °N, 95.92 °W | Updated 2 seconds ago

Overcast
Overcast
42.2 °F
Feels Like 39 °F
N
5.1
Wind Variable Wind from NNE
Gusts 9.2 mph

Today
High -- | Low -- °F
--% Chance of Precip.
Yesterday
High -- | Low -- °F
Precip. -- in
Pressure 29.56 in
Visibility 6.0 miles
Clouds Overcast 1400 ft
Windchill 39 °F
Dew Point 40 °F
Humidity 91%
Rainfall 0.79 in
Snow Depth Not available.
6:21 AM 8:20 PM
Waxing Crescent, 28% visible
METAR KOMA 010052Z 02014G18KT 6SM BR OVC014 07/03 A2954 RMK AO2 RAE04DZB04E28 SLP008 P0000 T00670033
Pressure 29.56 in
Visibility 6.0 miles
Clouds Overcast 1400 ft
Windchill 39 °F
Dew Point 40 °F
Humidity 91%
Rainfall 0.79 in
Snow Depth Not available.
6:21 AM 8:20 PM
Waxing Crescent, 28% visible
METAR KOMA 010052Z 02014G18KT 6SM BR OVC014 07/03 A2954 RMK AO2 RAE04DZB04E28 SLP008 P0000 T00670033

Get Severe Weather Alerts

Thanks for signing up!

Be on the lookout for a verification email in your inbox.

You'll start receiving the daily forecast at 8 AM.

×

10-Day Weather Forecast

Almanac

Astronomy

Apr. 30, 2017 Rise Set
Actual Time
Civil Twilight
Nautical Twilight
Astronomical Twilight
Moon
Length of Visible Light
Length of Day
Tomorrow will be .
, % of the Moon is Illuminated

Today's Extremes

State Highs State Lows

Community

WunderPhotos

WunderBlog® & News

Nearby

Air Quality

  Air Quality AQ Index Pollutant
Not available.

Snow Depth

Station Depth Elevation

Earthquake Activity

City Distance Mag. Time & Date
Minimum magnitude displayed is 2.5.

Coastal Water Temperatures

Place Temperature

Stations

Nearby Weather Stations

Station Location Temp. Windchill Dew Point Humidity Wind Precip. Elev Updated Type
                   

Watches & Warnings

There are currently no watches in effect.